EWG1MK LEBL-EDDH
Flight info
| Callsign | EWG1MK |
|---|---|
| Flight time | N/A |
| Altitude | 34000 |
| Route | DALIN DCT PIVUS DCT DIBER/N0455F340 DCT ADITA DCT MAXIR DCT LUSOL DCT BODRU DCT OKTET DCT IRMAR DCT KINES DCT VANAS DCT MOBLO DCT UBIMA DCT GILIR DCT PENDU DCT UZCUX/N0456F360 DCT SOSAD DCT OBOKA/N0461F350 DCT BASUM/N0460F360 Y850 PIXUR/N0460F350 Y850 MUBZI M105 RIBSO RIBSO7A |
| Aircraft | A320/M-SDE3FGHIRWY/LB1 |
Departure
| Time | N/A |
|---|---|
| Airport | Josep Tarradellas Barcelona-El Prat Airport (LEBL) |
Arrival
| Time | 2026-04-20 13:16 |
|---|---|
| Airport | Hamburg Helmut Schmidt Airport (EDDH) |
| Time | Latitude | Longitude | Altitude | Speed | Heading |
|---|---|---|---|---|---|
| 2026-04-20 11:40 | 44.40985 | 4.68594 | 34010 ft | 468 kts | 16° |
| 2026-04-20 11:40 | 44.47038 | 4.71970 | 34010 ft | 468 kts | 16° |
| 2026-04-20 11:41 | 44.53092 | 4.75349 | 34025 ft | 468 kts | 16° |
| 2026-04-20 11:41 | 44.59144 | 4.78736 | 34020 ft | 468 kts | 16° |
| 2026-04-20 11:42 | 44.65193 | 4.82132 | 34025 ft | 468 kts | 16° |
| 2026-04-20 11:42 | 44.71252 | 4.85532 | 34032 ft | 468 kts | 16° |
| 2026-04-20 11:43 | 44.77295 | 4.88940 | 34030 ft | 468 kts | 16° |
| 2026-04-20 11:43 | 44.83340 | 4.92350 | 34033 ft | 468 kts | 16° |
| 2026-04-20 11:44 | 44.89390 | 4.95763 | 34060 ft | 468 kts | 16° |
| 2026-04-20 11:44 | 44.95438 | 4.99191 | 34054 ft | 468 kts | 16° |
| 2026-04-20 11:45 | 45.01481 | 5.02628 | 34047 ft | 468 kts | 16° |
| 2026-04-20 11:45 | 45.07514 | 5.06064 | 34051 ft | 468 kts | 16° |
| 2026-04-20 11:46 | 45.13507 | 5.09487 | 34070 ft | 468 kts | 15° |
| 2026-04-20 11:46 | 45.19546 | 5.12937 | 34074 ft | 468 kts | 15° |
| 2026-04-20 11:47 | 45.25577 | 5.16394 | 34067 ft | 467 kts | 16° |
| 2026-04-20 11:47 | 45.31604 | 5.19860 | 34090 ft | 467 kts | 15° |
| 2026-04-20 11:48 | 45.37626 | 5.23332 | 34087 ft | 467 kts | 15° |
| 2026-04-20 11:48 | 45.43644 | 5.26811 | 34069 ft | 467 kts | 15° |
| 2026-04-20 11:49 | 45.49659 | 5.30285 | 34084 ft | 466 kts | 15° |
| 2026-04-20 11:49 | 45.55671 | 5.33770 | 34077 ft | 466 kts | 15° |
| 2026-04-20 11:50 | 45.61676 | 5.37271 | 34070 ft | 466 kts | 15° |
| 2026-04-20 11:50 | 45.67681 | 5.40775 | 34087 ft | 466 kts | 15° |
| 2026-04-20 11:51 | 45.73691 | 5.44279 | 34077 ft | 466 kts | 15° |
| 2026-04-20 11:51 | 45.79698 | 5.47793 | 34072 ft | 466 kts | 15° |
| 2026-04-20 11:52 | 45.85709 | 5.51316 | 34091 ft | 467 kts | 15° |
| 2026-04-20 11:52 | 45.91679 | 5.54825 | 34087 ft | 467 kts | 14° |
| 2026-04-20 11:53 | 45.97686 | 5.58370 | 34081 ft | 467 kts | 15° |
| 2026-04-20 11:53 | 46.03688 | 5.61929 | 34101 ft | 467 kts | 14° |
| 2026-04-20 11:54 | 46.09688 | 5.65488 | 34086 ft | 466 kts | 14° |
| 2026-04-20 11:54 | 46.15685 | 5.69044 | 34067 ft | 466 kts | 14° |
| 2026-04-20 11:55 | 46.21685 | 5.72603 | 34058 ft | 465 kts | 14° |
| 2026-04-20 11:55 | 46.27753 | 5.75486 | 34074 ft | 451 kts | 2° |
| 2026-04-20 11:56 | 46.33940 | 5.77072 | 34064 ft | 452 kts | 2° |
| 2026-04-20 11:56 | 46.40131 | 5.78642 | 34062 ft | 451 kts | 2° |
| 2026-04-20 11:57 | 46.46320 | 5.80221 | 34095 ft | 452 kts | 2° |
| 2026-04-20 11:57 | 46.52517 | 5.81808 | 34081 ft | 452 kts | 2° |
| 2026-04-20 11:58 | 46.58716 | 5.83399 | 34073 ft | 452 kts | 2° |
| 2026-04-20 11:58 | 46.64912 | 5.84992 | 34069 ft | 452 kts | 2° |
| 2026-04-20 11:59 | 46.71108 | 5.86582 | 34064 ft | 452 kts | 2° |
| 2026-04-20 11:59 | 46.77307 | 5.88189 | 34063 ft | 452 kts | 2° |
| 2026-04-20 12:00 | 46.83507 | 5.89798 | 34091 ft | 453 kts | 2° |
| 2026-04-20 12:00 | 46.89709 | 5.91405 | 34083 ft | 452 kts | 2° |
| 2026-04-20 12:01 | 46.95910 | 5.93018 | 34077 ft | 452 kts | 2° |
| 2026-04-20 12:01 | 47.02108 | 5.94631 | 34072 ft | 452 kts | 2° |
| 2026-04-20 12:02 | 47.08311 | 5.96249 | 34083 ft | 453 kts | 2° |
| 2026-04-20 12:02 | 47.14514 | 5.97881 | 34074 ft | 453 kts | 2° |
| 2026-04-20 12:03 | 47.20718 | 5.99530 | 34072 ft | 453 kts | 2° |
| 2026-04-20 12:03 | 47.26930 | 6.01167 | 34093 ft | 453 kts | 2° |
| 2026-04-20 12:04 | 47.33147 | 6.02800 | 34083 ft | 454 kts | 2° |
| 2026-04-20 12:04 | 47.39311 | 6.05234 | 34078 ft | 461 kts | 9° |
| 2026-04-20 12:05 | 47.45448 | 6.08007 | 34096 ft | 461 kts | 9° |
| 2026-04-20 12:05 | 47.51583 | 6.10783 | 34086 ft | 461 kts | 9° |
| 2026-04-20 12:06 | 47.57722 | 6.13558 | 34079 ft | 461 kts | 9° |
| 2026-04-20 12:06 | 47.63857 | 6.16340 | 34110 ft | 461 kts | 10° |
| 2026-04-20 12:07 | 47.69996 | 6.19130 | 34087 ft | 462 kts | 10° |
| 2026-04-20 12:07 | 47.76146 | 6.21931 | 34075 ft | 462 kts | 10° |
| 2026-04-20 12:08 | 47.82301 | 6.24744 | 34076 ft | 463 kts | 10° |
| 2026-04-20 12:08 | 47.88457 | 6.27571 | 34096 ft | 463 kts | 11° |
| 2026-04-20 12:09 | 47.94618 | 6.30397 | 34090 ft | 464 kts | 11° |
| 2026-04-20 12:09 | 48.00789 | 6.33234 | 34084 ft | 464 kts | 11° |
| 2026-04-20 12:10 | 48.06964 | 6.36082 | 34130 ft | 464 kts | 11° |
| 2026-04-20 12:10 | 48.13093 | 6.38926 | 34115 ft | 464 kts | 11° |
| 2026-04-20 12:11 | 48.19265 | 6.41788 | 34116 ft | 464 kts | 11° |
| 2026-04-20 12:11 | 48.25436 | 6.44643 | 34109 ft | 464 kts | 11° |
| 2026-04-20 12:12 | 48.31595 | 6.47511 | 34138 ft | 463 kts | 11° |
| 2026-04-20 12:12 | 48.37752 | 6.50392 | 34131 ft | 462 kts | 11° |
| 2026-04-20 12:13 | 48.43886 | 6.53277 | 34123 ft | 462 kts | 11° |
| 2026-04-20 12:13 | 48.50019 | 6.56159 | 34140 ft | 461 kts | 10° |
| 2026-04-20 12:14 | 48.56143 | 6.59039 | 34138 ft | 461 kts | 10° |
| 2026-04-20 12:14 | 48.62257 | 6.61921 | 34121 ft | 460 kts | 10° |
| 2026-04-20 12:15 | 48.68373 | 6.64810 | 34126 ft | 460 kts | 10° |
| 2026-04-20 12:15 | 48.74485 | 6.67718 | 34127 ft | 460 kts | 10° |
| 2026-04-20 12:16 | 48.80594 | 6.70631 | 34127 ft | 461 kts | 10° |
| 2026-04-20 12:16 | 48.85679 | 6.73054 | 34127 ft | 461 kts | 10° |
| 2026-04-20 12:17 | 48.91798 | 6.75982 | 34164 ft | 461 kts | 10° |
| 2026-04-20 12:17 | 48.97909 | 6.78916 | 34163 ft | 460 kts | 10° |
| 2026-04-20 12:18 | 49.04015 | 6.81843 | 34161 ft | 459 kts | 9° |
| 2026-04-20 12:18 | 49.10109 | 6.84775 | 34156 ft | 459 kts | 10° |
| 2026-04-20 12:19 | 49.16180 | 6.87712 | 34155 ft | 457 kts | 9° |
| 2026-04-20 12:19 | 49.22239 | 6.90654 | 34154 ft | 457 kts | 9° |
| 2026-04-20 12:20 | 49.28296 | 6.93596 | 34148 ft | 456 kts | 9° |
| 2026-04-20 12:20 | 49.34422 | 6.95530 | 34157 ft | 448 kts | 1° |
| 2026-04-20 12:21 | 49.40563 | 6.97162 | 34152 ft | 448 kts | 2° |
| 2026-04-20 12:21 | 49.46710 | 6.98798 | 34147 ft | 448 kts | 1° |
| 2026-04-20 12:22 | 49.52853 | 7.00436 | 34144 ft | 448 kts | 2° |
| 2026-04-20 12:22 | 49.58998 | 7.02081 | 34159 ft | 449 kts | 1° |
| 2026-04-20 12:23 | 49.65154 | 7.03732 | 34145 ft | 449 kts | 1° |
| 2026-04-20 12:23 | 49.71316 | 7.05387 | 34143 ft | 450 kts | 1° |
| 2026-04-20 12:24 | 49.77449 | 7.07051 | 34166 ft | 451 kts | 2° |
| 2026-04-20 12:24 | 49.83672 | 7.08742 | 34148 ft | 451 kts | 2° |
| 2026-04-20 12:25 | 49.89824 | 7.10407 | 34142 ft | 452 kts | 2° |
| 2026-04-20 12:25 | 49.96023 | 7.12086 | 34159 ft | 452 kts | 2° |
| 2026-04-20 12:26 | 50.02226 | 7.13780 | 34185 ft | 453 kts | 2° |
| 2026-04-20 12:26 | 50.08435 | 7.15473 | 34172 ft | 453 kts | 2° |
| 2026-04-20 12:27 | 50.14644 | 7.17170 | 34167 ft | 453 kts | 2° |
| 2026-04-20 12:27 | 50.20849 | 7.18873 | 34204 ft | 453 kts | 3° |
| 2026-04-20 12:28 | 50.27075 | 7.20588 | 34167 ft | 455 kts | 4° |
| 2026-04-20 12:28 | 50.33316 | 7.22314 | 34158 ft | 456 kts | 4° |
| 2026-04-20 12:29 | 50.39562 | 7.24044 | 34163 ft | 456 kts | 4° |
| 2026-04-20 12:29 | 50.45820 | 7.25778 | 34176 ft | 457 kts | 5° |
| 2026-04-20 12:30 | 50.52094 | 7.27530 | 34174 ft | 458 kts | 5° |
| 2026-04-20 12:30 | 50.58385 | 7.29288 | 34184 ft | 459 kts | 5° |
| 2026-04-20 12:31 | 50.64683 | 7.31046 | 34191 ft | 460 kts | 5° |
| 2026-04-20 12:31 | 50.70985 | 7.32817 | 34202 ft | 461 kts | 6° |
| 2026-04-20 12:32 | 50.77180 | 7.35619 | 34191 ft | 469 kts | 19° |
| 2026-04-20 12:32 | 50.83173 | 7.39712 | 34189 ft | 470 kts | 19° |
| 2026-04-20 12:33 | 50.89167 | 7.43832 | 34188 ft | 470 kts | 19° |
| 2026-04-20 12:33 | 50.95163 | 7.47958 | 34187 ft | 470 kts | 19° |
| 2026-04-20 12:34 | 51.01156 | 7.52081 | 34189 ft | 470 kts | 19° |
| 2026-04-20 12:34 | 51.07149 | 7.56221 | 34188 ft | 470 kts | 19° |
| 2026-04-20 12:35 | 51.13100 | 7.60356 | 34196 ft | 470 kts | 20° |
| 2026-04-20 12:35 | 51.19120 | 7.64545 | 34198 ft | 469 kts | 20° |
| 2026-04-20 12:36 | 51.25100 | 7.68700 | 34192 ft | 468 kts | 20° |
| 2026-04-20 12:36 | 51.31072 | 7.72867 | 34183 ft | 468 kts | 20° |
| 2026-04-20 12:37 | 51.37000 | 7.77022 | 34203 ft | 468 kts | 20° |
| 2026-04-20 12:37 | 51.42960 | 7.81209 | 34201 ft | 468 kts | 20° |
| 2026-04-20 12:38 | 51.48918 | 7.85407 | 34195 ft | 467 kts | 20° |
| 2026-04-20 12:38 | 51.54873 | 7.89607 | 34205 ft | 467 kts | 21° |
| 2026-04-20 12:39 | 51.63800 | 7.95940 | 34188 ft | 468 kts | 21° |
| 2026-04-20 12:40 | 51.69748 | 8.00185 | 34180 ft | 468 kts | 21° |
| 2026-04-20 12:40 | 51.75696 | 8.04441 | 34173 ft | 468 kts | 21° |
| 2026-04-20 12:41 | 51.81647 | 8.08694 | 34178 ft | 468 kts | 22° |
| 2026-04-20 12:41 | 51.87597 | 8.12967 | 34173 ft | 468 kts | 22° |
| 2026-04-20 12:42 | 51.93549 | 8.17249 | 34175 ft | 468 kts | 22° |
| 2026-04-20 12:42 | 51.99500 | 8.21540 | 34171 ft | 468 kts | 22° |
| 2026-04-20 12:43 | 52.05444 | 8.25849 | 34166 ft | 468 kts | 22° |
| 2026-04-20 12:43 | 52.11390 | 8.30178 | 33937 ft | 471 kts | 23° |
| 2026-04-20 12:43 | 52.14364 | 8.32347 | 33532 ft | 464 kts | 22° |
| 2026-04-20 12:44 | 52.17294 | 8.34483 | 33261 ft | 460 kts | 23° |
| 2026-04-20 12:44 | 52.20207 | 8.36600 | 32989 ft | 458 kts | 23° |
| 2026-04-20 12:44 | 52.23120 | 8.38723 | 32728 ft | 458 kts | 24° |
| 2026-04-20 12:44 | 52.25992 | 8.40826 | 32466 ft | 458 kts | 25° |
| 2026-04-20 12:45 | 52.28902 | 8.42965 | 32219 ft | 459 kts | 25° |
| 2026-04-20 12:45 | 52.31804 | 8.45100 | 31954 ft | 457 kts | 26° |
| 2026-04-20 12:45 | 52.34710 | 8.47238 | 31696 ft | 457 kts | 25° |
| 2026-04-20 12:45 | 52.37613 | 8.49377 | 30816 ft | 461 kts | 26° |
| 2026-04-20 12:46 | 52.40554 | 8.51548 | 29691 ft | 466 kts | 27° |
| 2026-04-20 12:46 | 52.43518 | 8.53736 | 28571 ft | 468 kts | 27° |
| 2026-04-20 12:46 | 52.46492 | 8.55937 | 27529 ft | 469 kts | 27° |
| 2026-04-20 12:46 | 52.49460 | 8.58140 | 26374 ft | 470 kts | 27° |
| 2026-04-20 12:47 | 52.52433 | 8.60348 | 25402 ft | 468 kts | 27° |
| 2026-04-20 12:47 | 52.55401 | 8.62555 | 24235 ft | 470 kts | 27° |
| 2026-04-20 12:47 | 52.58373 | 8.64766 | 23382 ft | 465 kts | 27° |
| 2026-04-20 12:47 | 52.61295 | 8.66941 | 22583 ft | 457 kts | 27° |
| 2026-04-20 12:48 | 52.64180 | 8.69089 | 21770 ft | 451 kts | 27° |
| 2026-04-20 12:48 | 52.67016 | 8.71206 | 21192 ft | 444 kts | 27° |
| 2026-04-20 12:48 | 52.69809 | 8.73300 | 20665 ft | 439 kts | 26° |
| 2026-04-20 12:48 | 52.72576 | 8.75378 | 20154 ft | 435 kts | 26° |
| 2026-04-20 12:49 | 52.75320 | 8.77436 | 19656 ft | 432 kts | 26° |
| 2026-04-20 12:49 | 52.77943 | 8.79773 | 19162 ft | 426 kts | 34° |
| 2026-04-20 12:49 | 52.80347 | 8.82596 | 18673 ft | 423 kts | 37° |
| 2026-04-20 12:49 | 52.82720 | 8.85449 | 18148 ft | 420 kts | 37° |
| 2026-04-20 12:50 | 52.85072 | 8.88278 | 17604 ft | 416 kts | 37° |
| 2026-04-20 12:50 | 52.87405 | 8.91088 | 17068 ft | 413 kts | 37° |
| 2026-04-20 12:50 | 52.89723 | 8.93879 | 16542 ft | 410 kts | 37° |
| 2026-04-20 12:50 | 52.92025 | 8.96649 | 16008 ft | 407 kts | 37° |
| 2026-04-20 12:51 | 52.94307 | 8.99397 | 15498 ft | 404 kts | 37° |
| 2026-04-20 12:51 | 52.96570 | 9.02128 | 14990 ft | 401 kts | 37° |
| 2026-04-20 12:51 | 52.98815 | 9.04842 | 14496 ft | 397 kts | 37° |
| 2026-04-20 12:51 | 53.01025 | 9.07524 | 14010 ft | 390 kts | 37° |
| 2026-04-20 12:52 | 53.03193 | 9.10158 | 13462 ft | 382 kts | 37° |
| 2026-04-20 12:52 | 53.05321 | 9.12747 | 12926 ft | 376 kts | 37° |
| 2026-04-20 12:52 | 53.07411 | 9.15294 | 12385 ft | 370 kts | 38° |
| 2026-04-20 12:52 | 53.09475 | 9.17808 | 11866 ft | 364 kts | 38° |
| 2026-04-20 12:53 | 53.11502 | 9.20277 | 11352 ft | 358 kts | 38° |
| 2026-04-20 12:53 | 53.13498 | 9.22709 | 10851 ft | 352 kts | 38° |
| 2026-04-20 12:53 | 53.15462 | 9.25103 | 10378 ft | 346 kts | 38° |
| 2026-04-20 12:53 | 53.17327 | 9.27380 | 9921 ft | 326 kts | 39° |
| 2026-04-20 12:54 | 53.19109 | 9.29556 | 9426 ft | 308 kts | 39° |
| 2026-04-20 12:54 | 53.20794 | 9.31620 | 8948 ft | 293 kts | 39° |
| 2026-04-20 12:54 | 53.22402 | 9.33595 | 8466 ft | 281 kts | 39° |
| 2026-04-20 12:54 | 53.23943 | 9.35494 | 8005 ft | 270 kts | 39° |
| 2026-04-20 12:55 | 53.25426 | 9.37324 | 7546 ft | 261 kts | 39° |
| 2026-04-20 12:55 | 53.26881 | 9.39120 | 7110 ft | 260 kts | 39° |
| 2026-04-20 12:55 | 53.28330 | 9.40911 | 6762 ft | 258 kts | 39° |
| 2026-04-20 12:55 | 53.29755 | 9.42673 | 6500 ft | 252 kts | 39° |
| 2026-04-20 12:56 | 53.31146 | 9.44391 | 6228 ft | 246 kts | 39° |
| 2026-04-20 12:56 | 53.32505 | 9.46066 | 5969 ft | 240 kts | 39° |
| 2026-04-20 12:56 | 53.33836 | 9.47710 | 5707 ft | 235 kts | 39° |
| 2026-04-20 12:56 | 53.35135 | 9.49318 | 5439 ft | 230 kts | 40° |
| 2026-04-20 12:57 | 53.36407 | 9.50891 | 5178 ft | 225 kts | 40° |
| 2026-04-20 12:57 | 53.37652 | 9.52437 | 4927 ft | 221 kts | 39° |
| 2026-04-20 12:57 | 53.38872 | 9.53955 | 4656 ft | 217 kts | 39° |
| 2026-04-20 12:57 | 53.40077 | 9.55451 | 4387 ft | 214 kts | 39° |
| 2026-04-20 12:58 | 53.41270 | 9.56932 | 4204 ft | 213 kts | 39° |
| 2026-04-20 12:58 | 53.42463 | 9.58415 | 4155 ft | 213 kts | 39° |
| 2026-04-20 12:58 | 53.43633 | 9.59941 | 4083 ft | 211 kts | 45° |
| 2026-04-20 12:58 | 53.44582 | 9.61723 | 3985 ft | 200 kts | 52° |
| 2026-04-20 12:59 | 53.45458 | 9.63483 | 3858 ft | 192 kts | 51° |
| 2026-04-20 12:59 | 53.46300 | 9.65166 | 3720 ft | 184 kts | 51° |
| 2026-04-20 12:59 | 53.47100 | 9.66763 | 3603 ft | 178 kts | 51° |
| 2026-04-20 12:59 | 53.47883 | 9.68327 | 3503 ft | 169 kts | 51° |
| 2026-04-20 13:00 | 53.48618 | 9.69796 | 3359 ft | 160 kts | 51° |
| 2026-04-20 13:00 | 53.49331 | 9.71223 | 3273 ft | 159 kts | 51° |
| 2026-04-20 13:00 | 53.50040 | 9.72649 | 3197 ft | 158 kts | 52° |
| 2026-04-20 13:00 | 53.50738 | 9.74062 | 3196 ft | 157 kts | 51° |
| 2026-04-20 13:01 | 53.51438 | 9.75472 | 3200 ft | 158 kts | 51° |
| 2026-04-20 13:01 | 53.52143 | 9.76888 | 3092 ft | 158 kts | 51° |
| 2026-04-20 13:01 | 53.52623 | 9.77850 | 2986 ft | 158 kts | 50° |
| 2026-04-20 13:01 | 53.53553 | 9.79718 | 2726 ft | 156 kts | 51° |
| 2026-04-20 13:02 | 53.54022 | 9.80659 | 2583 ft | 155 kts | 50° |
| 2026-04-20 13:02 | 53.54715 | 9.82049 | 2369 ft | 156 kts | 50° |
| 2026-04-20 13:02 | 53.55408 | 9.83442 | 2152 ft | 154 kts | 50° |
| 2026-04-20 13:02 | 53.56078 | 9.84789 | 1952 ft | 147 kts | 48° |
| 2026-04-20 13:03 | 53.56725 | 9.86088 | 1754 ft | 142 kts | 49° |
| 2026-04-20 13:03 | 53.57340 | 9.87326 | 1574 ft | 134 kts | 48° |
| 2026-04-20 13:03 | 53.57928 | 9.88510 | 1385 ft | 131 kts | 49° |
| 2026-04-20 13:03 | 53.58508 | 9.89674 | 1182 ft | 128 kts | 50° |
| 2026-04-20 13:04 | 53.59070 | 9.90808 | 994 ft | 125 kts | 50° |
| 2026-04-20 13:04 | 53.59634 | 9.91949 | 824 ft | 126 kts | 49° |
| 2026-04-20 13:04 | 53.60186 | 9.93074 | 645 ft | 128 kts | 51° |
| 2026-04-20 13:04 | 53.60765 | 9.94237 | 473 ft | 127 kts | 48° |
| 2026-04-20 13:05 | 53.61333 | 9.95372 | 293 ft | 128 kts | 48° |
| 2026-04-20 13:05 | 53.61889 | 9.96495 | 97 ft | 124 kts | 49° |
| 2026-04-20 13:05 | 53.62443 | 9.97595 | 152 ft | 127 kts | 48° |
| 2026-04-20 13:05 | 53.63017 | 9.98811 | 797 ft | 143 kts | 51° |
| 2026-04-20 13:06 | 53.63661 | 10.00258 | 1544 ft | 163 kts | 53° |
| 2026-04-20 13:06 | 53.64365 | 10.01898 | 2016 ft | 184 kts | 53° |
| 2026-04-20 13:06 | 53.64944 | 10.03913 | 2597 ft | 200 kts | 81° |
| 2026-04-20 13:06 | 53.64740 | 10.06271 | 3074 ft | 211 kts | 112° |
| 2026-04-20 13:07 | 53.63750 | 10.08112 | 3182 ft | 220 kts | 146° |
| 2026-04-20 13:07 | 53.62244 | 10.08740 | 3196 ft | 232 kts | 176° |
| 2026-04-20 13:07 | 53.60628 | 10.08469 | 3201 ft | 234 kts | 183° |
| 2026-04-20 13:07 | 53.59023 | 10.07928 | 3195 ft | 239 kts | 199° |
| 2026-04-20 13:08 | 53.57582 | 10.06490 | 3200 ft | 244 kts | 212° |
| 2026-04-20 13:08 | 53.56259 | 10.04704 | 3199 ft | 244 kts | 226° |
| 2026-04-20 13:08 | 53.55197 | 10.02460 | 3201 ft | 246 kts | 233° |
| 2026-04-20 13:08 | 53.54206 | 10.00119 | 3198 ft | 245 kts | 234° |
| 2026-04-20 13:09 | 53.53203 | 9.97810 | 3197 ft | 245 kts | 229° |
| 2026-04-20 13:09 | 53.52059 | 9.95705 | 3200 ft | 243 kts | 225° |
| 2026-04-20 13:09 | 53.50886 | 9.93664 | 3197 ft | 243 kts | 225° |
| 2026-04-20 13:09 | 53.49698 | 9.91628 | 3198 ft | 244 kts | 224° |
| 2026-04-20 13:10 | 53.48567 | 9.89522 | 3197 ft | 240 kts | 237° |
| 2026-04-20 13:10 | 53.47980 | 9.87017 | 3195 ft | 225 kts | 264° |
| 2026-04-20 13:10 | 53.48055 | 9.84516 | 3190 ft | 207 kts | 290° |
| 2026-04-20 13:10 | 53.48649 | 9.82450 | 3193 ft | 189 kts | 314° |
| 2026-04-20 13:11 | 53.49560 | 9.80942 | 3116 ft | 182 kts | 325° |
| 2026-04-20 13:11 | 53.50512 | 9.79567 | 2980 ft | 179 kts | 328° |
| 2026-04-20 13:11 | 53.51592 | 9.78739 | 2916 ft | 167 kts | 358° |
| 2026-04-20 13:11 | 53.52713 | 9.78881 | 2827 ft | 161 kts | 24° |
| 2026-04-20 13:12 | 53.53626 | 9.79869 | 2670 ft | 155 kts | 49° |
| 2026-04-20 13:12 | 53.54317 | 9.81251 | 2481 ft | 155 kts | 51° |
| 2026-04-20 13:12 | 53.55013 | 9.82649 | 2266 ft | 156 kts | 50° |
| 2026-04-20 13:12 | 53.55703 | 9.84036 | 2067 ft | 153 kts | 49° |
| 2026-04-20 13:13 | 53.56379 | 9.85395 | 1857 ft | 150 kts | 49° |
| 2026-04-20 13:13 | 53.57041 | 9.86727 | 1646 ft | 147 kts | 49° |
| 2026-04-20 13:13 | 53.57674 | 9.88001 | 1467 ft | 136 kts | 49° |
| 2026-04-20 13:13 | 53.58263 | 9.89184 | 1266 ft | 129 kts | 50° |
| 2026-04-20 13:14 | 53.58833 | 9.90329 | 1073 ft | 126 kts | 50° |
| 2026-04-20 13:14 | 53.59400 | 9.91475 | 898 ft | 127 kts | 49° |
| 2026-04-20 13:14 | 53.59957 | 9.92602 | 754 ft | 123 kts | 50° |
| 2026-04-20 13:14 | 53.60514 | 9.93718 | 563 ft | 122 kts | 50° |
| 2026-04-20 13:15 | 53.61068 | 9.94843 | 350 ft | 127 kts | 48° |
| 2026-04-20 13:15 | 53.61629 | 9.95977 | 165 ft | 126 kts | 50° |
| 2026-04-20 13:15 | 53.62185 | 9.97097 | 42 ft | 119 kts | 50° |
| 2026-04-20 13:15 | 53.62607 | 9.97951 | 41 ft | 71 kts | 50° |
| 2026-04-20 13:16 | 53.62878 | 9.98502 | 44 ft | 54 kts | 50° |
| 2026-04-20 13:16 | 53.63095 | 9.98940 | 46 ft | 44 kts | 51° |
| 2026-04-20 13:16 | 53.63277 | 9.99305 | 47 ft | 38 kts | 50° |
| 2026-04-20 13:16 | 53.63436 | 9.99630 | 48 ft | 34 kts | 50° |
| 2026-04-20 13:17 | 53.63557 | 9.99881 | 51 ft | 21 kts | 51° |
| 2026-04-20 13:17 | 53.63540 | 10.00027 | 51 ft | 13 kts | 138° |
| 2026-04-20 13:17 | 53.63510 | 10.00070 | 49 ft | 0 kts | 140° |
| 2026-04-20 13:17 | 53.63507 | 10.00073 | 49 ft | 0 kts | 140° |
| 2026-04-20 13:18 | 53.63507 | 10.00074 | 49 ft | 0 kts | 140° |
| 2026-04-20 13:19 | 53.63506 | 10.00075 | 49 ft | 0 kts | 140° |
| 2026-04-20 13:19 | 53.63506 | 10.00076 | 49 ft | 0 kts | 140° |
| 2026-04-20 13:20 | 53.63447 | 10.00153 | 48 ft | 22 kts | 143° |
| 2026-04-20 13:20 | 53.63292 | 10.00203 | 48 ft | 22 kts | 176° |
| 2026-04-20 13:20 | 53.63233 | 10.00221 | 48 ft | 1 kts | 109° |
| 2026-04-20 13:20 | 53.63236 | 10.00231 | 48 ft | 4 kts | 72° |
| 2026-04-20 13:21 | 53.63245 | 10.00357 | 48 ft | 8 kts | 86° |
| 2026-04-20 13:21 | 53.63245 | 10.00360 | 48 ft | 0 kts | 86° |